sensor_id;sensor_type;location;lat;lon;timestamp;P1;durP1;ratioP1;P2;durP2;ratioP2
20110;SDS011;10216;42.658;23.248;2022-11-15T00:00:45;47.93;;;29.73;;
20110;SDS011;10216;42.658;23.248;2022-11-15T00:03:13;56.87;;;31.57;;
20110;SDS011;10216;42.658;23.248;2022-11-15T00:05:38;59.63;;;34.90;;
20110;SDS011;10216;42.658;23.248;2022-11-15T00:08:03;60.00;;;34.63;;
20110;SDS011;10216;42.658;23.248;2022-11-15T00:10:28;68.47;;;36.17;;
20110;SDS011;10216;42.658;23.248;2022-11-15T00:12:53;63.70;;;37.30;;
20110;SDS011;10216;42.658;23.248;2022-11-15T00:15:19;74.20;;;37.27;;
20110;SDS011;10216;42.658;23.248;2022-11-15T00:17:44;73.30;;;38.50;;
20110;SDS011;10216;42.658;23.248;2022-11-15T00:20:13;85.83;;;41.67;;
20110;SDS011;10216;42.658;23.248;2022-11-15T00:22:38;77.43;;;41.93;;
20110;SDS011;10216;42.658;23.248;2022-11-15T00:25:03;85.30;;;45.23;;
20110;SDS011;10216;42.658;23.248;2022-11-15T00:29:56;89.40;;;46.60;;
20110;SDS011;10216;42.658;23.248;2022-11-15T00:32:22;94.90;;;47.67;;
20110;SDS011;10216;42.658;23.248;2022-11-15T00:34:47;88.90;;;45.07;;
20110;SDS011;10216;42.658;23.248;2022-11-15T00:37:12;88.10;;;44.40;;
20110;SDS011;10216;42.658;23.248;2022-11-15T00:39:37;80.63;;;42.13;;
20110;SDS011;10216;42.658;23.248;2022-11-15T00:42:03;89.17;;;42.87;;
20110;SDS011;10216;42.658;23.248;2022-11-15T00:44:28;72.87;;;38.80;;
20110;SDS011;10216;42.658;23.248;2022-11-15T00:46:53;72.63;;;38.87;;
20110;SDS011;10216;42.658;23.248;2022-11-15T00:49:18;66.87;;;35.43;;
20110;SDS011;10216;42.658;23.248;2022-11-15T00:51:44;71.03;;;37.10;;
20110;SDS011;10216;42.658;23.248;2022-11-15T00:54:09;70.80;;;37.80;;
20110;SDS011;10216;42.658;23.248;2022-11-15T00:56:34;74.33;;;36.83;;
20110;SDS011;10216;42.658;23.248;2022-11-15T00:58:59;76.03;;;37.63;;
20110;SDS011;10216;42.658;23.248;2022-11-15T01:01:25;75.70;;;38.67;;
20110;SDS011;10216;42.658;23.248;2022-11-15T01:03:50;69.83;;;36.30;;
20110;SDS011;10216;42.658;23.248;2022-11-15T01:06:15;65.67;;;35.07;;
20110;SDS011;10216;42.658;23.248;2022-11-15T01:08:40;56.80;;;31.67;;
20110;SDS011;10216;42.658;23.248;2022-11-15T01:11:07;59.10;;;30.97;;
20110;SDS011;10216;42.658;23.248;2022-11-15T01:13:33;55.67;;;30.70;;
20110;SDS011;10216;42.658;23.248;2022-11-15T01:15:59;61.30;;;32.87;;
20110;SDS011;10216;42.658;23.248;2022-11-15T01:18:24;61.17;;;33.00;;
20110;SDS011;10216;42.658;23.248;2022-11-15T01:20:50;60.07;;;32.20;;
20110;SDS011;10216;42.658;23.248;2022-11-15T01:23:15;64.60;;;33.70;;
20110;SDS011;10216;42.658;23.248;2022-11-15T01:25:40;65.03;;;31.63;;
20110;SDS011;10216;42.658;23.248;2022-11-15T01:28:05;66.20;;;33.43;;
20110;SDS011;10216;42.658;23.248;2022-11-15T01:30:31;60.30;;;31.47;;
20110;SDS011;10216;42.658;23.248;2022-11-15T01:32:58;63.37;;;31.43;;
20110;SDS011;10216;42.658;23.248;2022-11-15T01:35:23;66.03;;;31.77;;
20110;SDS011;10216;42.658;23.248;2022-11-15T01:37:49;61.27;;;30.63;;
20110;SDS011;10216;42.658;23.248;2022-11-15T01:40:14;59.67;;;30.13;;
20110;SDS011;10216;42.658;23.248;2022-11-15T01:42:39;60.87;;;30.87;;
20110;SDS011;10216;42.658;23.248;2022-11-15T01:45:05;60.63;;;31.57;;
20110;SDS011;10216;42.658;23.248;2022-11-15T01:47:31;63.40;;;31.63;;
20110;SDS011;10216;42.658;23.248;2022-11-15T01:50:00;61.63;;;32.00;;
20110;SDS011;10216;42.658;23.248;2022-11-15T01:52:26;65.43;;;32.87;;
20110;SDS011;10216;42.658;23.248;2022-11-15T01:54:53;59.67;;;30.07;;
20110;SDS011;10216;42.658;23.248;2022-11-15T01:57:20;62.73;;;29.80;;
20110;SDS011;10216;42.658;23.248;2022-11-15T01:59:45;60.90;;;29.63;;
20110;SDS011;10216;42.658;23.248;2022-11-15T02:02:12;65.23;;;31.10;;
20110;SDS011;10216;42.658;23.248;2022-11-15T02:04:45;59.43;;;30.60;;
20110;SDS011;10216;42.658;23.248;2022-11-15T02:07:11;61.57;;;30.53;;
20110;SDS011;10216;42.658;23.248;2022-11-15T02:09:38;52.33;;;29.80;;
20110;SDS011;10216;42.658;23.248;2022-11-15T02:12:03;53.43;;;29.77;;
20110;SDS011;10216;42.658;23.248;2022-11-15T02:14:29;47.63;;;26.83;;
20110;SDS011;10216;42.658;23.248;2022-11-15T02:32:30;41.77;;;23.10;;
20110;SDS011;10216;42.658;23.248;2022-11-15T02:35:02;41.87;;;22.87;;
20110;SDS011;10216;42.658;23.248;2022-11-15T02:37:42;38.57;;;20.77;;
20110;SDS011;10216;42.658;23.248;2022-11-15T02:42:54;33.27;;;19.57;;
20110;SDS011;10216;42.658;23.248;2022-11-15T02:45:44;33.20;;;18.30;;
20110;SDS011;10216;42.658;23.248;2022-11-15T02:48:10;36.83;;;18.33;;
20110;SDS011;10216;42.658;23.248;2022-11-15T02:50:36;36.40;;;18.47;;
20110;SDS011;10216;42.658;23.248;2022-11-15T02:53:01;31.03;;;16.70;;
20110;SDS011;10216;42.658;23.248;2022-11-15T02:55:31;27.27;;;15.43;;
20110;SDS011;10216;42.658;23.248;2022-11-15T02:58:19;31.93;;;18.00;;
20110;SDS011;10216;42.658;23.248;2022-11-15T03:01:12;28.90;;;15.30;;
20110;SDS011;10216;42.658;23.248;2022-11-15T03:08:32;32.17;;;17.43;;
20110;SDS011;10216;42.658;23.248;2022-11-15T03:11:07;31.37;;;17.93;;
20110;SDS011;10216;42.658;23.248;2022-11-15T03:16:03;41.97;;;21.50;;
20110;SDS011;10216;42.658;23.248;2022-11-15T03:18:32;46.43;;;22.23;;
20110;SDS011;10216;42.658;23.248;2022-11-15T03:20:59;46.60;;;23.23;;
20110;SDS011;10216;42.658;23.248;2022-11-15T03:23:26;45.23;;;23.07;;
20110;SDS011;10216;42.658;23.248;2022-11-15T03:25:53;51.33;;;24.97;;
20110;SDS011;10216;42.658;23.248;2022-11-15T03:28:21;47.70;;;26.20;;
20110;SDS011;10216;42.658;23.248;2022-11-15T03:30:47;55.10;;;28.37;;
20110;SDS011;10216;42.658;23.248;2022-11-15T03:33:14;55.37;;;27.57;;
20110;SDS011;10216;42.658;23.248;2022-11-15T03:35:40;52.20;;;28.37;;
20110;SDS011;10216;42.658;23.248;2022-11-15T03:38:19;57.97;;;28.87;;
20110;SDS011;10216;42.658;23.248;2022-11-15T03:40:47;58.63;;;30.33;;
20110;SDS011;10216;42.658;23.248;2022-11-15T03:43:26;52.93;;;29.17;;
20110;SDS011;10216;42.658;23.248;2022-11-15T03:45:56;54.30;;;28.60;;
20110;SDS011;10216;42.658;23.248;2022-11-15T03:48:24;56.37;;;30.77;;
20110;SDS011;10216;42.658;23.248;2022-11-15T03:50:50;60.60;;;32.83;;
20110;SDS011;10216;42.658;23.248;2022-11-15T03:53:16;62.13;;;32.10;;
20110;SDS011;10216;42.658;23.248;2022-11-15T03:55:41;79.40;;;35.40;;
20110;SDS011;10216;42.658;23.248;2022-11-15T03:58:07;81.43;;;35.87;;
20110;SDS011;10216;42.658;23.248;2022-11-15T04:03:06;90.17;;;38.43;;
20110;SDS011;10216;42.658;23.248;2022-11-15T04:05:33;76.30;;;36.00;;
20110;SDS011;10216;42.658;23.248;2022-11-15T04:07:58;75.30;;;34.67;;
20110;SDS011;10216;42.658;23.248;2022-11-15T04:10:23;69.63;;;34.13;;
20110;SDS011;10216;42.658;23.248;2022-11-15T04:12:48;68.93;;;32.80;;
20110;SDS011;10216;42.658;23.248;2022-11-15T04:15:15;55.57;;;28.03;;
20110;SDS011;10216;42.658;23.248;2022-11-15T04:20:13;46.97;;;24.10;;
20110;SDS011;10216;42.658;23.248;2022-11-15T04:22:57;59.60;;;25.23;;
20110;SDS011;10216;42.658;23.248;2022-11-15T04:25:50;96.00;;;29.97;;
20110;SDS011;10216;42.658;23.248;2022-11-15T04:28:16;83.03;;;32.33;;
20110;SDS011;10216;42.658;23.248;2022-11-15T04:30:41;102.63;;;36.07;;
20110;SDS011;10216;42.658;23.248;2022-11-15T04:33:06;203.67;;;38.60;;
20110;SDS011;10216;42.658;23.248;2022-11-15T04:35:32;187.90;;;36.20;;
20110;SDS011;10216;42.658;23.248;2022-11-15T04:37:57;130.27;;;36.50;;
20110;SDS011;10216;42.658;23.248;2022-11-15T04:40:23;134.57;;;35.23;;
20110;SDS011;10216;42.658;23.248;2022-11-15T04:42:48;76.83;;;33.60;;
20110;SDS011;10216;42.658;23.248;2022-11-15T04:45:13;65.47;;;32.33;;
20110;SDS011;10216;42.658;23.248;2022-11-15T04:47:39;57.40;;;28.30;;
20110;SDS011;10216;42.658;23.248;2022-11-15T04:50:04;47.83;;;24.47;;
20110;SDS011;10216;42.658;23.248;2022-11-15T04:52:29;46.23;;;23.83;;
20110;SDS011;10216;42.658;23.248;2022-11-15T04:54:54;60.83;;;25.23;;
20110;SDS011;10216;42.658;23.248;2022-11-15T04:57:20;68.60;;;25.57;;
20110;SDS011;10216;42.658;23.248;2022-11-15T04:59:45;64.83;;;27.17;;
20110;SDS011;10216;42.658;23.248;2022-11-15T05:02:10;61.80;;;24.77;;
20110;SDS011;10216;42.658;23.248;2022-11-15T05:04:36;65.30;;;26.70;;
20110;SDS011;10216;42.658;23.248;2022-11-15T05:07:01;67.53;;;28.53;;
20110;SDS011;10216;42.658;23.248;2022-11-15T05:09:27;73.33;;;29.90;;
20110;SDS011;10216;42.658;23.248;2022-11-15T05:11:52;99.77;;;29.67;;
20110;SDS011;10216;42.658;23.248;2022-11-15T05:14:17;56.33;;;28.80;;
20110;SDS011;10216;42.658;23.248;2022-11-15T05:16:42;89.30;;;31.43;;
20110;SDS011;10216;42.658;23.248;2022-11-15T05:19:08;82.80;;;33.00;;
20110;SDS011;10216;42.658;23.248;2022-11-15T05:21:33;70.63;;;31.63;;
20110;SDS011;10216;42.658;23.248;2022-11-15T05:23:58;225.93;;;42.37;;
20110;SDS011;10216;42.658;23.248;2022-11-15T05:26:24;164.57;;;39.17;;
20110;SDS011;10216;42.658;23.248;2022-11-15T05:28:52;183.27;;;39.27;;
20110;SDS011;10216;42.658;23.248;2022-11-15T05:31:19;77.07;;;35.63;;
20110;SDS011;10216;42.658;23.248;2022-11-15T05:33:46;104.80;;;40.03;;
20110;SDS011;10216;42.658;23.248;2022-11-15T05:36:13;114.63;;;41.73;;
20110;SDS011;10216;42.658;23.248;2022-11-15T05:38:41;195.00;;;39.87;;
20110;SDS011;10216;42.658;23.248;2022-11-15T05:41:06;146.47;;;39.77;;
20110;SDS011;10216;42.658;23.248;2022-11-15T05:43:32;220.10;;;41.67;;
20110;SDS011;10216;42.658;23.248;2022-11-15T05:45:58;282.37;;;41.47;;
20110;SDS011;10216;42.658;23.248;2022-11-15T05:48:24;317.03;;;59.00;;
20110;SDS011;10216;42.658;23.248;2022-11-15T05:50:49;351.80;;;59.40;;
20110;SDS011;10216;42.658;23.248;2022-11-15T05:53:15;190.33;;;58.20;;
20110;SDS011;10216;42.658;23.248;2022-11-15T05:55:42;239.10;;;93.17;;
20110;SDS011;10216;42.658;23.248;2022-11-15T05:58:08;140.80;;;47.17;;
20110;SDS011;10216;42.658;23.248;2022-11-15T06:00:33;120.03;;;38.17;;
20110;SDS011;10216;42.658;23.248;2022-11-15T06:02:58;147.37;;;38.30;;
20110;SDS011;10216;42.658;23.248;2022-11-15T06:05:24;202.00;;;42.27;;
20110;SDS011;10216;42.658;23.248;2022-11-15T06:07:49;95.83;;;39.60;;
20110;SDS011;10216;42.658;23.248;2022-11-15T06:10:14;122.70;;;35.73;;
20110;SDS011;10216;42.658;23.248;2022-11-15T06:12:39;95.73;;;33.10;;
20110;SDS011;10216;42.658;23.248;2022-11-15T06:15:05;100.10;;;34.40;;
20110;SDS011;10216;42.658;23.248;2022-11-15T06:17:30;106.80;;;32.77;;
20110;SDS011;10216;42.658;23.248;2022-11-15T06:19:55;134.97;;;34.13;;
20110;SDS011;10216;42.658;23.248;2022-11-15T06:22:21;135.43;;;32.77;;
20110;SDS011;10216;42.658;23.248;2022-11-15T06:24:46;165.87;;;34.70;;
20110;SDS011;10216;42.658;23.248;2022-11-15T06:27:11;128.23;;;36.10;;
20110;SDS011;10216;42.658;23.248;2022-11-15T06:29:37;153.53;;;52.70;;
20110;SDS011;10216;42.658;23.248;2022-11-15T06:32:02;150.27;;;38.13;;
20110;SDS011;10216;42.658;23.248;2022-11-15T06:34:28;152.60;;;37.13;;
20110;SDS011;10216;42.658;23.248;2022-11-15T06:36:53;130.80;;;43.77;;
20110;SDS011;10216;42.658;23.248;2022-11-15T06:39:19;135.83;;;37.90;;
20110;SDS011;10216;42.658;23.248;2022-11-15T06:41:44;96.93;;;32.97;;
20110;SDS011;10216;42.658;23.248;2022-11-15T06:44:09;119.43;;;33.20;;
20110;SDS011;10216;42.658;23.248;2022-11-15T06:46:34;106.77;;;32.73;;
20110;SDS011;10216;42.658;23.248;2022-11-15T06:49:00;93.30;;;31.97;;
20110;SDS011;10216;42.658;23.248;2022-11-15T06:51:25;76.63;;;31.87;;
20110;SDS011;10216;42.658;23.248;2022-11-15T06:53:50;64.30;;;31.47;;
20110;SDS011;10216;42.658;23.248;2022-11-15T06:56:15;65.17;;;30.97;;
20110;SDS011;10216;42.658;23.248;2022-11-15T06:58:41;68.67;;;30.77;;
20110;SDS011;10216;42.658;23.248;2022-11-15T07:01:07;74.93;;;30.77;;
20110;SDS011;10216;42.658;23.248;2022-11-15T07:03:37;69.47;;;36.73;;
20110;SDS011;10216;42.658;23.248;2022-11-15T07:06:03;56.53;;;32.13;;
20110;SDS011;10216;42.658;23.248;2022-11-15T07:08:28;65.33;;;30.87;;
20110;SDS011;10216;42.658;23.248;2022-11-15T07:10:54;90.03;;;34.60;;
20110;SDS011;10216;42.658;23.248;2022-11-15T07:13:20;85.67;;;34.67;;
20110;SDS011;10216;42.658;23.248;2022-11-15T07:15:48;75.20;;;34.97;;
20110;SDS011;10216;42.658;23.248;2022-11-15T07:18:14;70.53;;;36.43;;
20110;SDS011;10216;42.658;23.248;2022-11-15T07:20:39;82.17;;;39.10;;
20110;SDS011;10216;42.658;23.248;2022-11-15T07:23:04;78.73;;;40.47;;
20110;SDS011;10216;42.658;23.248;2022-11-15T07:25:30;91.47;;;42.27;;
20110;SDS011;10216;42.658;23.248;2022-11-15T07:27:58;110.63;;;41.07;;
20110;SDS011;10216;42.658;23.248;2022-11-15T07:30:24;103.50;;;40.47;;
20110;SDS011;10216;42.658;23.248;2022-11-15T07:32:57;72.43;;;39.53;;
20110;SDS011;10216;42.658;23.248;2022-11-15T07:35:22;94.83;;;38.57;;
20110;SDS011;10216;42.658;23.248;2022-11-15T07:37:59;110.83;;;41.40;;
20110;SDS011;10216;42.658;23.248;2022-11-15T07:40:25;76.30;;;38.40;;
20110;SDS011;10216;42.658;23.248;2022-11-15T07:42:51;130.33;;;40.27;;
20110;SDS011;10216;42.658;23.248;2022-11-15T07:45:22;91.87;;;39.20;;
20110;SDS011;10216;42.658;23.248;2022-11-15T07:47:49;111.23;;;40.13;;
20110;SDS011;10216;42.658;23.248;2022-11-15T07:50:14;92.13;;;40.17;;
20110;SDS011;10216;42.658;23.248;2022-11-15T07:52:39;93.27;;;41.97;;
20110;SDS011;10216;42.658;23.248;2022-11-15T07:55:05;90.80;;;42.43;;
20110;SDS011;10216;42.658;23.248;2022-11-15T07:57:30;99.83;;;43.27;;
20110;SDS011;10216;42.658;23.248;2022-11-15T07:59:55;83.97;;;41.23;;
20110;SDS011;10216;42.658;23.248;2022-11-15T08:02:21;84.87;;;41.83;;
20110;SDS011;10216;42.658;23.248;2022-11-15T08:04:46;86.00;;;40.17;;
20110;SDS011;10216;42.658;23.248;2022-11-15T08:07:11;73.33;;;39.30;;
20110;SDS011;10216;42.658;23.248;2022-11-15T08:09:37;74.00;;;38.23;;
20110;SDS011;10216;42.658;23.248;2022-11-15T08:12:02;89.30;;;42.87;;
20110;SDS011;10216;42.658;23.248;2022-11-15T08:14:27;97.60;;;45.13;;
20110;SDS011;10216;42.658;23.248;2022-11-15T08:16:54;104.50;;;44.40;;
20110;SDS011;10216;42.658;23.248;2022-11-15T08:19:19;77.83;;;42.60;;
20110;SDS011;10216;42.658;23.248;2022-11-15T08:21:45;84.63;;;43.77;;
20110;SDS011;10216;42.658;23.248;2022-11-15T08:24:10;78.90;;;42.90;;
20110;SDS011;10216;42.658;23.248;2022-11-15T08:26:35;82.00;;;42.40;;
20110;SDS011;10216;42.658;23.248;2022-11-15T08:29:01;94.20;;;43.80;;
20110;SDS011;10216;42.658;23.248;2022-11-15T08:31:26;87.00;;;44.50;;
20110;SDS011;10216;42.658;23.248;2022-11-15T08:33:51;86.17;;;42.67;;
20110;SDS011;10216;42.658;23.248;2022-11-15T08:36:17;81.37;;;42.10;;
20110;SDS011;10216;42.658;23.248;2022-11-15T08:38:42;87.23;;;44.17;;
20110;SDS011;10216;42.658;23.248;2022-11-15T08:41:09;73.97;;;42.63;;
20110;SDS011;10216;42.658;23.248;2022-11-15T08:43:36;76.27;;;44.23;;
20110;SDS011;10216;42.658;23.248;2022-11-15T08:46:01;90.47;;;46.43;;
20110;SDS011;10216;42.658;23.248;2022-11-15T08:48:26;85.57;;;47.47;;
20110;SDS011;10216;42.658;23.248;2022-11-15T08:50:54;91.33;;;48.97;;
20110;SDS011;10216;42.658;23.248;2022-11-15T08:53:20;81.43;;;44.90;;
20110;SDS011;10216;42.658;23.248;2022-11-15T08:55:45;93.93;;;50.00;;
20110;SDS011;10216;42.658;23.248;2022-11-15T08:58:10;90.77;;;48.47;;
20110;SDS011;10216;42.658;23.248;2022-11-15T09:00:36;90.97;;;48.43;;
20110;SDS011;10216;42.658;23.248;2022-11-15T09:03:03;87.53;;;47.67;;
20110;SDS011;10216;42.658;23.248;2022-11-15T09:05:28;84.40;;;50.03;;
20110;SDS011;10216;42.658;23.248;2022-11-15T09:07:53;88.77;;;50.43;;
20110;SDS011;10216;42.658;23.248;2022-11-15T09:10:19;99.30;;;53.03;;
20110;SDS011;10216;42.658;23.248;2022-11-15T09:12:44;94.57;;;51.90;;
20110;SDS011;10216;42.658;23.248;2022-11-15T09:15:13;93.10;;;51.33;;
20110;SDS011;10216;42.658;23.248;2022-11-15T09:17:38;100.50;;;54.23;;
20110;SDS011;10216;42.658;23.248;2022-11-15T09:20:03;98.90;;;53.77;;
20110;SDS011;10216;42.658;23.248;2022-11-15T09:22:29;110.90;;;55.87;;
20110;SDS011;10216;42.658;23.248;2022-11-15T09:24:54;104.20;;;57.97;;
20110;SDS011;10216;42.658;23.248;2022-11-15T09:27:20;111.90;;;56.60;;
20110;SDS011;10216;42.658;23.248;2022-11-15T09:29:45;106.73;;;60.87;;
20110;SDS011;10216;42.658;23.248;2022-11-15T09:32:10;109.07;;;58.97;;
20110;SDS011;10216;42.658;23.248;2022-11-15T09:34:35;110.30;;;59.20;;
20110;SDS011;10216;42.658;23.248;2022-11-15T09:37:00;112.50;;;59.13;;
20110;SDS011;10216;42.658;23.248;2022-11-15T09:39:26;121.50;;;62.30;;
20110;SDS011;10216;42.658;23.248;2022-11-15T09:49:16;131.80;;;66.77;;
20110;SDS011;10216;42.658;23.248;2022-11-15T09:51:49;128.40;;;69.07;;
20110;SDS011;10216;42.658;23.248;2022-11-15T09:59:48;155.87;;;81.83;;
20110;SDS011;10216;42.658;23.248;2022-11-15T10:05:02;149.60;;;73.13;;
20110;SDS011;10216;42.658;23.248;2022-11-15T10:12:35;143.63;;;73.53;;
20110;SDS011;10216;42.658;23.248;2022-11-15T10:15:05;148.07;;;76.30;;
20110;SDS011;10216;42.658;23.248;2022-11-15T10:20:26;141.77;;;76.13;;
20110;SDS011;10216;42.658;23.248;2022-11-15T10:22:53;140.63;;;75.17;;
20110;SDS011;10216;42.658;23.248;2022-11-15T10:25:21;133.63;;;73.83;;
20110;SDS011;10216;42.658;23.248;2022-11-15T10:30:39;134.70;;;76.83;;
20110;SDS011;10216;42.658;23.248;2022-11-15T10:38:33;125.90;;;73.90;;
20110;SDS011;10216;42.658;23.248;2022-11-15T10:41:15;125.57;;;75.10;;
20110;SDS011;10216;42.658;23.248;2022-11-15T10:43:41;119.53;;;73.30;;
20110;SDS011;10216;42.658;23.248;2022-11-15T10:46:18;121.57;;;73.90;;
20110;SDS011;10216;42.658;23.248;2022-11-15T10:48:44;127.03;;;72.73;;
20110;SDS011;10216;42.658;23.248;2022-11-15T10:51:18;122.00;;;74.90;;
20110;SDS011;10216;42.658;23.248;2022-11-15T10:53:45;110.60;;;72.33;;
20110;SDS011;10216;42.658;23.248;2022-11-15T10:56:12;116.60;;;74.40;;
20110;SDS011;10216;42.658;23.248;2022-11-15T10:58:38;107.27;;;69.90;;
20110;SDS011;10216;42.658;23.248;2022-11-15T11:01:14;114.27;;;71.47;;
20110;SDS011;10216;42.658;23.248;2022-11-15T11:03:40;117.27;;;74.43;;
20110;SDS011;10216;42.658;23.248;2022-11-15T11:06:08;112.20;;;72.63;;
20110;SDS011;10216;42.658;23.248;2022-11-15T11:08:34;117.87;;;76.07;;
20110;SDS011;10216;42.658;23.248;2022-11-15T11:10:59;117.80;;;74.70;;
20110;SDS011;10216;42.658;23.248;2022-11-15T11:13:35;115.70;;;72.27;;
20110;SDS011;10216;42.658;23.248;2022-11-15T11:18:33;117.63;;;72.83;;
20110;SDS011;10216;42.658;23.248;2022-11-15T11:21:03;121.27;;;77.03;;
20110;SDS011;10216;42.658;23.248;2022-11-15T11:41:04;107.43;;;73.20;;
20110;SDS011;10216;42.658;23.248;2022-11-15T11:48:48;114.43;;;73.83;;
20110;SDS011;10216;42.658;23.248;2022-11-15T11:56:11;110.60;;;72.80;;
20110;SDS011;10216;42.658;23.248;2022-11-15T11:58:40;124.03;;;81.57;;
20110;SDS011;10216;42.658;23.248;2022-11-15T12:03:59;106.83;;;71.33;;
20110;SDS011;10216;42.658;23.248;2022-11-15T12:08:57;108.47;;;70.63;;
20110;SDS011;10216;42.658;23.248;2022-11-15T12:13:50;103.90;;;73.40;;
20110;SDS011;10216;42.658;23.248;2022-11-15T12:16:28;100.63;;;72.53;;
20110;SDS011;10216;42.658;23.248;2022-11-15T12:18:54;108.60;;;69.27;;
20110;SDS011;10216;42.658;23.248;2022-11-15T12:24:13;93.40;;;62.93;;
20110;SDS011;10216;42.658;23.248;2022-11-15T12:26:41;95.00;;;63.47;;
20110;SDS011;10216;42.658;23.248;2022-11-15T12:29:14;86.20;;;62.87;;
20110;SDS011;10216;42.658;23.248;2022-11-15T12:31:41;104.27;;;78.67;;
20110;SDS011;10216;42.658;23.248;2022-11-15T12:36:46;78.97;;;59.50;;
20110;SDS011;10216;42.658;23.248;2022-11-15T12:39:12;79.70;;;60.17;;
20110;SDS011;10216;42.658;23.248;2022-11-15T12:41:38;79.50;;;58.83;;
20110;SDS011;10216;42.658;23.248;2022-11-15T12:44:04;82.53;;;61.87;;
20110;SDS011;10216;42.658;23.248;2022-11-15T13:02:17;82.23;;;64.20;;
20110;SDS011;10216;42.658;23.248;2022-11-15T13:04:43;97.57;;;69.27;;
20110;SDS011;10216;42.658;23.248;2022-11-15T13:07:08;98.00;;;72.97;;
20110;SDS011;10216;42.658;23.248;2022-11-15T13:09:53;102.73;;;69.33;;
20110;SDS011;10216;42.658;23.248;2022-11-15T13:14:56;99.43;;;67.70;;
20110;SDS011;10216;42.658;23.248;2022-11-15T13:20:11;113.83;;;80.13;;
20110;SDS011;10216;42.658;23.248;2022-11-15T13:25:17;101.60;;;68.90;;
20110;SDS011;10216;42.658;23.248;2022-11-15T13:27:47;109.50;;;70.20;;
20110;SDS011;10216;42.658;23.248;2022-11-15T13:30:19;117.63;;;72.57;;
20110;SDS011;10216;42.658;23.248;2022-11-15T13:32:44;109.13;;;70.50;;
20110;SDS011;10216;42.658;23.248;2022-11-15T13:35:17;107.83;;;69.40;;
20110;SDS011;10216;42.658;23.248;2022-11-15T13:37:43;100.40;;;66.27;;
20110;SDS011;10216;42.658;23.248;2022-11-15T13:40:25;105.57;;;69.43;;
20110;SDS011;10216;42.658;23.248;2022-11-15T13:42:52;103.87;;;67.90;;
20110;SDS011;10216;42.658;23.248;2022-11-15T13:45:18;115.97;;;69.37;;
20110;SDS011;10216;42.658;23.248;2022-11-15T13:47:43;107.83;;;65.40;;
20110;SDS011;10216;42.658;23.248;2022-11-15T13:50:12;101.73;;;66.20;;
20110;SDS011;10216;42.658;23.248;2022-11-15T13:52:38;103.53;;;65.40;;
20110;SDS011;10216;42.658;23.248;2022-11-15T13:55:26;109.23;;;67.60;;
20110;SDS011;10216;42.658;23.248;2022-11-15T13:57:58;106.47;;;68.37;;
20110;SDS011;10216;42.658;23.248;2022-11-15T14:00:37;101.37;;;65.23;;
20110;SDS011;10216;42.658;23.248;2022-11-15T14:03:21;98.77;;;64.93;;
20110;SDS011;10216;42.658;23.248;2022-11-15T14:06:08;102.53;;;65.60;;
20110;SDS011;10216;42.658;23.248;2022-11-15T14:08:38;102.20;;;64.17;;
20110;SDS011;10216;42.658;23.248;2022-11-15T14:11:06;101.00;;;65.43;;
20110;SDS011;10216;42.658;23.248;2022-11-15T14:13:35;101.10;;;64.83;;
20110;SDS011;10216;42.658;23.248;2022-11-15T14:16:19;95.77;;;63.37;;
20110;SDS011;10216;42.658;23.248;2022-11-15T14:18:46;106.90;;;62.83;;
20110;SDS011;10216;42.658;23.248;2022-11-15T14:21:12;106.23;;;67.33;;
20110;SDS011;10216;42.658;23.248;2022-11-15T14:23:38;104.27;;;65.83;;
20110;SDS011;10216;42.658;23.248;2022-11-15T14:26:05;104.33;;;64.43;;
20110;SDS011;10216;42.658;23.248;2022-11-15T14:28:33;106.63;;;65.47;;
20110;SDS011;10216;42.658;23.248;2022-11-15T14:31:04;107.67;;;65.93;;
20110;SDS011;10216;42.658;23.248;2022-11-15T14:33:33;103.80;;;67.83;;
20110;SDS011;10216;42.658;23.248;2022-11-15T14:36:02;112.67;;;68.20;;
20110;SDS011;10216;42.658;23.248;2022-11-15T14:38:28;121.00;;;78.17;;
20110;SDS011;10216;42.658;23.248;2022-11-15T14:40:53;110.53;;;72.03;;
20110;SDS011;10216;42.658;23.248;2022-11-15T14:43:19;110.27;;;69.03;;
20110;SDS011;10216;42.658;23.248;2022-11-15T14:45:45;116.17;;;68.50;;
20110;SDS011;10216;42.658;23.248;2022-11-15T14:48:10;106.90;;;68.70;;
20110;SDS011;10216;42.658;23.248;2022-11-15T14:50:36;119.90;;;70.97;;
20110;SDS011;10216;42.658;23.248;2022-11-15T14:53:01;111.17;;;69.83;;
20110;SDS011;10216;42.658;23.248;2022-11-15T14:55:27;110.67;;;68.63;;
20110;SDS011;10216;42.658;23.248;2022-11-15T14:57:53;112.03;;;68.00;;
20110;SDS011;10216;42.658;23.248;2022-11-15T15:00:19;110.03;;;68.67;;
20110;SDS011;10216;42.658;23.248;2022-11-15T15:02:44;107.57;;;68.63;;
20110;SDS011;10216;42.658;23.248;2022-11-15T15:05:23;118.60;;;70.57;;
20110;SDS011;10216;42.658;23.248;2022-11-15T15:07:49;114.50;;;69.30;;
20110;SDS011;10216;42.658;23.248;2022-11-15T15:10:15;117.93;;;67.50;;
20110;SDS011;10216;42.658;23.248;2022-11-15T15:12:40;106.80;;;66.07;;
20110;SDS011;10216;42.658;23.248;2022-11-15T15:15:09;106.87;;;65.53;;
20110;SDS011;10216;42.658;23.248;2022-11-15T15:17:37;111.97;;;68.10;;
20110;SDS011;10216;42.658;23.248;2022-11-15T15:20:02;111.10;;;65.90;;
20110;SDS011;10216;42.658;23.248;2022-11-15T15:22:27;113.50;;;67.13;;
20110;SDS011;10216;42.658;23.248;2022-11-15T15:24:54;109.43;;;66.70;;
20110;SDS011;10216;42.658;23.248;2022-11-15T15:27:19;111.20;;;68.10;;
20110;SDS011;10216;42.658;23.248;2022-11-15T15:29:44;113.87;;;64.90;;
20110;SDS011;10216;42.658;23.248;2022-11-15T15:32:10;119.57;;;68.07;;
20110;SDS011;10216;42.658;23.248;2022-11-15T15:34:35;115.33;;;65.77;;
20110;SDS011;10216;42.658;23.248;2022-11-15T15:37:09;116.40;;;67.77;;
20110;SDS011;10216;42.658;23.248;2022-11-15T15:39:44;103.30;;;61.47;;
20110;SDS011;10216;42.658;23.248;2022-11-15T15:42:11;106.57;;;65.50;;
20110;SDS011;10216;42.658;23.248;2022-11-15T15:44:36;104.43;;;63.83;;
20110;SDS011;10216;42.658;23.248;2022-11-15T15:47:01;107.23;;;67.23;;
20110;SDS011;10216;42.658;23.248;2022-11-15T15:49:27;112.10;;;68.77;;
20110;SDS011;10216;42.658;23.248;2022-11-15T15:51:52;121.90;;;69.03;;
20110;SDS011;10216;42.658;23.248;2022-11-15T15:54:17;120.20;;;69.57;;
20110;SDS011;10216;42.658;23.248;2022-11-15T15:56:42;109.17;;;67.40;;
20110;SDS011;10216;42.658;23.248;2022-11-15T15:59:08;118.67;;;69.97;;
20110;SDS011;10216;42.658;23.248;2022-11-15T16:01:33;108.33;;;65.47;;
20110;SDS011;10216;42.658;23.248;2022-11-15T16:03:58;103.50;;;62.10;;
20110;SDS011;10216;42.658;23.248;2022-11-15T16:06:34;96.87;;;57.43;;
20110;SDS011;10216;42.658;23.248;2022-11-15T16:09:00;93.93;;;54.80;;
20110;SDS011;10216;42.658;23.248;2022-11-15T16:11:25;94.03;;;59.13;;
20110;SDS011;10216;42.658;23.248;2022-11-15T16:13:50;93.43;;;56.00;;
20110;SDS011;10216;42.658;23.248;2022-11-15T16:16:16;101.00;;;58.77;;